Aviation Digital Data Service (ADDS)

Output produced by TAFs form (2253 UTC 22 June 2018)
found at http://www.aviationweather.gov/adds/tafs/
 
KPNS 222153Z 22015KT 10SM SCT036 31/22 A2988 RMK AO2 SLP119 T03110222
KPNS 221723Z 2218/2318 24011KT P6SM VCSH SCT035 
     FM230000 22010KT P6SM FEW050 FEW250 
     FM231400 23008KT P6SM BKN020